Latest Weather Observations for Bombala AWS

IDN60801

Issued at 5:22 pm EDT Tuesday 26 March 2019 (issued every 10 minutes, with the page automatically refreshed every 10 minutes)

About weather observations | Map of weather stations | Latest weather observations for NSW | Other Formats
Station Details ID: 070328 Name: BOMBALA AWS Lat: -37.00 Lon: 149.23 Height: 760.5 m
Data from the previous 72 hours. | See also: Recent months at Bombala AWS
Date/Time
EDT
Temp
°C
App
Temp
°C
Dew
Point
°C
Rel
Hum
%
Delta-T
°C
Wind Press
QNH
hPa
Press
MSL
hPa
Rain since
9am
mm
Dir  Spd
km/h
Gust
km/h
Spd
kts
Gust
kts
26/05:00pm 15.5 9.7 2.3 41 6.1 WSW 22 32 12 17 1017.9 1015.8 0.0
26/04:30pm 15.6 8.2 2.1 40 6.3 SW 30 43 16 23 1017.8 1015.7 0.0
26/04:00pm 15.9 7.5 1.6 38 6.6 WSW 35 44 19 24 1017.5 1015.4 0.0
26/03:30pm 15.7 8.2 1.4 38 6.5 WSW 30 41 16 22 1017.3 1015.1 0.0
26/03:00pm 16.2 9.7 2.6 40 6.4 WSW 26 39 14 21 1017.4 1015.2 0.0
26/02:30pm 14.9 8.5 1.1 39 6.2 WSW 24 37 13 20 1017.4 1015.2 0.0
26/02:00pm 15.6 9.4 2.1 40 6.3 WSW 24 33 13 18 1017.2 1015.0 0.0
26/01:30pm 15.4 8.8 1.9 40 6.2 WSW 26 35 14 19 1017.2 1015.0 0.0
26/01:00pm 14.7 7.6 1.6 41 6.0 WSW 28 41 15 22 1016.9 1014.7 0.0
26/12:30pm 14.3 6.4 1.2 41 5.9 WSW 32 41 17 22 1016.9 1014.7 0.0
26/12:12pm 13.7 6.1 0.7 41 5.8 W 30 48 16 26 1016.8 1014.6 0.0
26/12:00pm 13.9 6.4 1.5 43 5.6 W 30 43 16 23 1016.6 1014.5 0.0
26/11:30am 12.8 4.8 0.5 43 5.4 W 32 43 17 23 1016.6 1014.5 0.0
26/11:08am 12.5 4.9 0.3 43 5.3 WSW 30 48 16 26 1016.5 1014.4 0.0
26/11:00am 12.3 4.6 0.1 43 5.3 WSW 30 44 16 24 1016.4 1014.3 0.0
26/10:30am 11.7 1.8 -0.8 42 5.3 W 41 57 22 31 1015.8 1013.6 0.0
26/10:00am 11.2 2.9 -0.6 44 5.0 W 33 41 18 22 1015.9 1013.7 0.0
26/09:30am 10.0 1.7 -0.5 48 4.4 W 33 46 18 25 1015.6 1013.4 0.0
26/09:00am 9.3 2.0 -0.3 51 4.0 W 28 37 15 20 1015.2 1013.1 0.2
26/08:30am 8.4 2.6 0.1 56 3.5 W 20 26 11 14 1015.1 1012.9 0.2
26/08:00am 7.2 2.0 0.0 60 3.0 W 17 20 9 11 1014.6 1012.4 0.2
26/07:30am 6.0 0.7 -0.5 63 2.6 W 17 22 9 12 1014.2 1012.0 0.2
26/07:00am 3.3 -1.6 -0.2 78 1.4 WNW 15 17 8 9 1013.5 1011.3 0.2
26/06:30am 4.4 0.7 -0.2 72 1.8 W 9 13 5 7 1013.4 1011.2 0.2
26/06:00am 4.2 0.5 -0.2 73 1.7 W 9 11 5 6 1013.0 1010.8 0.2
26/05:30am 4.8 0.7 -0.2 70 2.0 WNW 11 13 6 7 1012.8 1010.5 0.2
26/05:00am 6.3 3.0 0.4 66 2.4 NW 7 9 4 5 1012.7 1010.4 0.2
26/04:30am 6.0 2.9 -0.1 65 2.5 WNW 6 7 3 4 1012.4 1010.2 0.2
26/04:00am 7.5 4.8 0.5 61 2.9 WNW 4 6 2 3 1012.4 1010.2 0.2
26/03:30am 7.6 4.0 0.3 60 3.0 WNW 9 9 5 5 1012.2 1010.0 0.2
26/03:00am 9.5 6.4 0.4 53 3.9 W 6 7 3 4 1012.3 1010.1 0.2
26/02:30am 8.7 5.1 0.7 57 3.4 NW 9 11 5 6 1012.2 1010.0 0.2
26/02:00am 9.1 5.1 0.6 55 3.6 WNW 11 17 6 9 1012.1 1009.9 0.2
26/01:30am 8.9 5.3 0.4 55 3.6 WNW 9 13 5 7 1012.2 1010.0 0.2
26/01:00am 10.1 4.0 0.7 52 4.0 WNW 22 28 12 15 1012.0 1009.8 0.2
26/12:30am 9.6 4.5 0.8 54 3.8 W 17 30 9 16 1012.1 1009.9 0.2
26/12:00am 10.7 3.9 1.0 51 4.2 WNW 26 32 14 17 1012.2 1010.0 0.2
 
Date/Time
EDT
Temp
°C
App
Temp
°C
Dew
Point
°C
Rel
Hum
%
Delta-T
°C
Wind Press
QNH
hPa
Press
MSL
hPa
Rain since
9am
mm
Dir  Spd
km/h
Gust
km/h
Spd
kts
Gust
kts
25/11:30pm 10.9 5.3 1.2 51 4.2 WNW 20 30 11 16 1012.2 1010.0 0.2
25/11:00pm 11.4 6.4 1.4 50 4.4 WNW 17 24 9 13 1012.4 1010.2 0.2
25/10:30pm 11.6 5.8 2.1 52 4.3 WNW 22 32 12 17 1011.9 1009.7 0.2
25/10:00pm 11.4 6.9 1.9 52 4.2 NW 15 24 8 13 1011.7 1009.5 0.2
25/09:30pm 11.9 6.6 2.1 51 4.4 WNW 19 30 10 16 1011.4 1009.1 0.2
25/09:00pm 12.2 6.9 2.1 50 4.6 WNW 19 30 10 16 1010.9 1008.7 0.2
25/08:30pm 12.4 6.7 2.6 51 4.5 WNW 22 30 12 16 1010.3 1008.0 0.2
25/08:00pm 12.2 6.8 2.6 52 4.4 W 20 26 11 14 1010.0 1007.7 0.2
25/07:30pm 12.7 7.5 3.4 53 4.3 W 20 24 11 13 1009.5 1007.3 0.2
25/07:00pm 13.9 7.9 3.4 49 5.0 W 24 32 13 17 1009.3 1007.0 0.2
25/06:30pm 15.4 6.7 2.2 41 6.1 WNW 37 46 20 25 1008.7 1006.4 0.2
25/06:00pm 16.5 6.7 2.5 39 6.6 WNW 43 57 23 31 1008.0 1005.7 0.2
25/05:30pm 17.7 8.7 4.6 42 6.5 WNW 41 61 22 33 1007.5 1005.2 0.2
25/05:00pm 18.7 10.1 4.5 39 7.1 WNW 39 61 21 33 1006.8 1004.5 0.2
25/04:30pm 19.2 8.3 5.3 40 7.1 WNW 52 74 28 40 1006.0 1003.7 0.2
25/04:18pm 19.7 10.4 6.1 41 7.0 WNW 44 72 24 39 1005.7 1003.3 0.2
25/04:17pm 19.9 10.8 6.6 42 7.0 WNW 44 72 24 39 1005.8 1003.4 0.2
25/04:01pm 19.4 7.8 6.5 43 6.7 WNW 57 76 31 41 1005.3 1003.0 0.2
25/04:00pm 19.5 7.6 6.9 44 6.6 WNW 59 76 32 41 1005.2 1002.9 0.2
25/03:30pm 19.9 7.9 8.3 47 6.3 WNW 61 95 33 51 1004.6 1002.2 0.2
25/03:00pm 19.8 7.6 8.8 49 6.0 WNW 63 85 34 46 1004.3 1001.9 0.2
25/02:30pm 21.5 10.6 9.7 47 6.6 WNW 57 80 31 43 1004.0 1001.7 0.2
25/02:00pm 22.4 14.0 10.9 48 6.6 W 46 72 25 39 1004.0 1001.7 0.0
25/01:30pm 23.3 14.0 10.7 45 7.2 WNW 50 72 27 39 1003.9 1001.6 0.0
25/01:00pm 22.9 14.1 11.0 47 6.9 WNW 48 69 26 37 1003.7 1001.4 0.0
25/12:42pm 23.3 15.4 10.7 45 7.2 WNW 43 63 23 34 1003.8 1001.5 0.0
25/12:30pm 22.3 13.5 9.5 44 7.2 WNW 46 61 25 33 1003.4 1001.0 0.0
25/12:13pm 22.9 16.3 10.0 44 7.3 W 35 54 19 29 1003.5 1001.1 0.0
25/12:03pm 23.6 15.8 9.6 41 7.9 WNW 41 63 22 34 1003.6 1001.3 0.0
25/12:00pm 25.2 17.4 11.0 41 8.3 WNW 43 63 23 34 1003.7 1001.4 0.0
25/11:55am 24.5 16.8 10.0 40 8.3 NW 41 63 22 34 1003.7 1001.4 0.0
25/11:50am 24.8 18.6 9.5 38 8.7 NW 32 59 17 32 1003.6 1001.3 0.0
25/11:30am 23.7 17.4 11.1 45 7.3 WNW 35 63 19 34 1004.3 1001.9 0.0
25/11:24am 24.1 16.1 11.1 44 7.5 WNW 44 65 24 35 1004.0 1001.7 0.0
25/11:00am 23.0 17.1 10.4 45 7.2 WNW 32 52 17 28 1004.2 1001.8 0.0
25/10:30am 22.8 19.3 12.1 51 6.3 NW 22 33 12 18 1004.6 1002.2 0.0
25/10:00am 22.3 19.2 11.7 51 6.2 NW 19 24 10 13 1004.5 1002.1 0.0
25/09:30am 21.1 18.5 12.0 56 5.3 NNW 17 24 9 13 1004.8 1002.5 0.0
25/09:00am 18.7 16.2 12.2 66 3.8 NNW 17 22 9 12 1004.5 1002.1 0.0
25/08:30am 17.9 16.0 11.9 68 3.4 NW 13 19 7 10 1004.4 1002.0 0.0
25/08:00am 17.1 16.1 12.4 74 2.7 NW 9 13 5 7 1004.4 1002.0 0.0
25/07:30am 17.9 15.3 11.9 68 3.4 W 17 20 9 11 1004.0 1001.7 0.0
25/07:00am 18.3 15.3 11.8 66 3.7 WNW 19 24 10 13 1003.8 1001.5 0.0
25/06:30am 19.8 14.1 11.8 60 4.6 WNW 33 54 18 29 1003.9 1001.6 0.0
25/06:23am 20.2 14.1 11.9 59 4.8 WNW 35 54 19 29 1003.5 1001.1 0.0
25/06:00am 20.3 15.7 12.3 60 4.7 WNW 28 43 15 23 1003.2 1000.8 0.0
25/05:30am 20.3 15.9 11.8 58 4.9 NW 26 33 14 18 1002.5 1000.2 0.0
25/05:00am 19.7 13.3 12.0 61 4.5 NW 37 44 20 24 1001.8 999.4 0.0
25/04:30am 19.2 14.9 12.2 64 4.0 NW 26 32 14 17 1002.2 999.8 0.0
25/04:00am 18.6 16.5 12.4 67 3.6 NNW 15 20 8 11 1002.9 1000.5 0.0
25/03:30am 19.3 16.2 12.3 64 4.0 NNW 20 26 11 14 1003.0 1000.6 0.0
25/03:00am 18.7 15.8 12.2 66 3.8 NW 19 26 10 14 1003.3 1000.9 0.0
25/02:30am 18.8 13.8 12.3 66 3.8 N 30 37 16 20 1003.5 1001.1 0.0
25/02:00am 18.5 14.8 12.7 69 3.4 NNW 24 32 13 17 1004.0 1001.7 0.0
25/01:30am 18.3 16.2 12.5 69 3.4 NNW 15 20 8 11 1005.6 1003.2 0.0
25/01:00am 18.8 15.4 12.5 67 3.7 N 22 33 12 18 1005.8 1003.4 0.0
25/12:30am 18.7 15.0 12.7 68 3.5 NNW 24 32 13 17 1006.0 1003.7 0.0
25/12:00am 19.1 15.1 13.1 68 3.5 NNW 26 33 14 18 1006.6 1004.3 0.0
 
Date/Time
EDT
Temp
°C
App
Temp
°C
Dew
Point
°C
Rel
Hum
%
Delta-T
°C
Wind Press
QNH
hPa
Press
MSL
hPa
Rain since
9am
mm
Dir  Spd
km/h
Gust
km/h
Spd
kts
Gust
kts
24/11:30pm 19.3 14.9 13.0 67 3.7 N 28 37 15 20 1006.8 1004.5 0.0
24/11:00pm 19.5 15.1 12.8 65 3.9 N 28 37 15 20 1007.4 1005.1 0.0
24/10:30pm 19.5 15.5 13.0 66 3.8 NNW 26 37 14 20 1007.8 1005.5 0.0
24/10:00pm 19.5 15.5 13.0 66 3.8 NNW 26 35 14 19 1008.0 1005.7 0.0
24/09:30pm 19.3 16.6 13.0 67 3.7 NNW 19 24 10 13 1009.0 1006.7 0.0
24/09:00pm 19.8 16.9 13.0 65 4.0 NNW 20 26 11 14 1008.8 1006.5 0.0
24/08:30pm 20.1 17.9 13.3 65 4.0 NNW 17 22 9 12 1009.1 1006.8 0.0
24/08:00pm 18.6 19.1 15.5 82 1.9 NNE 7 9 4 5 1009.3 1007.0 0.0
24/07:30pm 18.4 19.0 15.8 85 1.6 NE 7 11 4 6 1009.4 1007.2 0.0
24/07:00pm 19.0 20.1 15.5 80 2.1 N 4 6 2 3 1009.5 1007.3 0.0
24/06:30pm 18.8 19.1 15.9 83 1.8 ENE 9 17 5 9 1009.8 1007.5 0.0
24/06:00pm 19.7 20.9 15.8 78 2.4 ENE 4 9 2 5 1010.2 1007.9 0.0
24/05:30pm 20.3 21.2 16.1 77 2.6 ENE 6 9 3 5 1010.4 1008.1 0.0
24/05:00pm 21.3 20.9 15.2 68 3.7 NNE 11 20 6 11 1010.3 1008.0 0.0
24/04:30pm 23.4 22.0 13.3 53 6.1 NNW 13 17 7 9 1010.3 1008.0 0.0
24/04:00pm 23.4 23.0 13.0 52 6.2 NNW 7 15 4 8 1010.4 1008.1 0.0
24/03:30pm 22.4 20.7 12.4 53 5.9 NW 13 20 7 11 1010.8 1008.6 0.0
24/03:00pm 22.7 22.2 12.0 50 6.3 NNW 6 7 3 4 1011.3 1009.0 0.0
24/02:30pm 22.0 20.9 12.0 53 5.8 WNW 9 13 5 7 1011.8 1009.6 0.0
24/02:00pm 22.0 21.4 13.4 58 5.1 NNW 9 17 5 9 1012.1 1009.9 0.0
24/01:30pm 21.1 18.3 13.3 61 4.6 NW 20 28 11 15 1012.7 1010.4 0.0
24/01:00pm 20.5 18.4 13.5 64 4.2 NW 17 24 9 13 1013.2 1011.0 0.0
24/12:30pm 19.5 18.4 13.0 66 3.8 NW 11 17 6 9 1013.3 1011.1 0.0
24/12:00pm 19.3 18.5 13.9 71 3.2 NW 11 17 6 9 1014.0 1011.7 0.0
24/11:30am 17.9 18.5 14.2 79 2.2 N 4 7 2 4 1014.5 1012.3 0.0
24/11:00am 16.7 17.3 14.3 86 1.4 NW 4 6 2 3 1015.0 1012.8 0.0
24/10:30am 15.9 15.9 14.1 89 1.1 N 7 9 4 5 1014.9 1012.7 0.0
24/10:00am 15.3 14.9 14.2 93 0.6 NNW 9 11 5 6 1014.7 1012.5 0.0
24/09:30am 14.8 14.9 14.5 98 0.2 NNW 7 9 4 5 1014.6 1012.4 0.0
24/09:00am 14.5 15.6 14.5 100 0.0 N 2 4 1 2 1014.3 1012.1 0.6
24/08:30am 14.3 15.3 14.3 100 0.0 N 2 6 1 3 1014.3 1012.1 0.6
24/08:00am 14.1 14.2 13.9 99 0.1 N 6 6 3 3 1014.3 1012.1 0.6
24/07:30am 14.1 14.1 13.6 97 0.3 NNW 6 11 3 6 1014.4 1012.2 0.4
24/07:00am 13.9 13.7 13.7 99 0.1 NW 7 9 4 5 1014.4 1012.2 0.4
24/06:30am 14.2 15.3 13.6 96 0.3 CALM 0 0 0 0 1014.0 1011.7 0.4
24/06:00am 14.0 13.9 13.4 96 0.3 SSE 6 7 3 4 1013.4 1011.2 0.4
24/05:30am 14.2 14.0 13.1 93 0.6 S 6 6 3 3 1013.5 1011.3 0.4
24/05:00am 14.0 14.2 13.1 94 0.5 SE 4 6 2 3 1013.4 1011.2 0.4
24/04:30am 13.8 14.0 12.9 94 0.5 ENE 4 7 2 4 1013.0 1010.8 0.4
24/04:00am 13.8 14.6 12.5 92 0.7 CALM 0 2 0 1 1012.9 1010.7 0.4
24/03:30am 15.1 16.0 13.0 87 1.2 CALM 0 0 0 0 1012.8 1010.5 0.4
24/03:00am 14.9 15.7 12.6 86 1.3 CALM 0 0 0 0 1012.8 1010.5 0.4
24/02:30am 13.8 14.2 12.4 91 0.8 NNW 2 4 1 2 1013.0 1010.8 0.4
24/02:00am 15.0 15.9 12.9 87 1.2 CALM 0 0 0 0 1013.1 1010.9 0.4
24/01:30am 14.7 15.5 12.7 88 1.1 CALM 0 0 0 0 1013.2 1011.0 0.4
24/01:00am 15.4 16.4 13.1 86 1.3 CALM 0 0 0 0 1013.1 1010.9 0.4
24/12:30am 15.3 15.2 13.3 88 1.2 NNW 6 7 3 4 1013.2 1011.0 0.4
24/12:00am 14.8 14.1 13.3 91 0.9 NW 9 15 5 8 1013.3 1011.1 0.4
 
Date/Time
EDT
Temp
°C
App
Temp
°C
Dew
Point
°C
Rel
Hum
%
Delta-T
°C
Wind Press
QNH
hPa
Press
MSL
hPa
Rain since
9am
mm
Dir  Spd
km/h
Gust
km/h
Spd
kts
Gust
kts
23/11:30pm 15.7 14.2 14.1 90 0.9 NNW 15 22 8 12 1013.3 1011.1 0.4
23/11:00pm 14.2 12.6 12.9 92 0.7 NNW 13 15 7 8 1013.0 1010.8 0.4
23/10:30pm 14.8 14.6 13.0 89 1.0 NNW 6 7 3 4 1013.1 1010.9 0.4
23/10:00pm 15.7 15.4 13.2 85 1.4 NNW 7 7 4 4 1012.8 1010.5 0.4
23/09:30pm 16.8 16.9 12.7 77 2.4 WNW 4 6 2 3 1012.8 1010.5 0.4
23/09:00pm 17.0 17.8 12.7 76 2.5 CALM 0 0 0 0 1012.6 1010.3 0.4
23/08:30pm 17.6 16.5 13.1 75 2.6 WNW 11 17 6 9 1012.3 1010.1 0.4
23/08:00pm 17.6 16.8 13.9 79 2.2 NW 11 13 6 7 1012.1 1009.9 0.4
23/07:30pm 17.6 17.1 13.9 79 2.2 NNW 9 11 5 6 1011.8 1009.6 0.4
23/07:00pm 18.2 18.1 13.9 76 2.5 NNW 7 13 4 7 1011.7 1009.5 0.4
23/06:30pm 18.4 18.1 14.5 78 2.3 N 9 9 5 5 1011.6 1009.3 0.4
23/06:00pm 18.6 18.7 14.5 77 2.5 N 7 9 4 5 1011.8 1009.6 0.4
23/05:30pm 18.7 18.3 14.0 74 2.8 N 9 11 5 6 1012.1 1009.9 0.4

Other formats

Comma delimited format used in spreadsheet applications
http://www.bom.gov.au/fwo/IDN60801/IDN60801.94929.axf

JavaScript Object Notation format (JSON) in row-major order
http://www.bom.gov.au/fwo/IDN60801/IDN60801.94929.json

Data quality

Most of these data are generated automatically and are frequently updated. Quality checks on data are not normally performed. It is possible for incorrect values to appear. Refer to information at About Latest Weather Observations and please check the disclaimer before using these data.